createdAt,value
2022-08-05T00:00:16.116Z,22.98
2022-08-05T00:02:51.577Z,22.79
2022-08-05T00:05:27.232Z,22.55
2022-08-05T00:08:32.530Z,22.66
2022-08-05T00:11:00.833Z,22.54
2022-08-05T00:13:38.128Z,22.60
2022-08-05T00:16:08.444Z,22.61
2022-08-05T00:18:38.158Z,22.61
2022-08-05T00:21:08.465Z,22.62
2022-08-05T00:23:46.102Z,22.62
2022-08-05T00:26:22.304Z,22.54
2022-08-05T00:28:50.924Z,22.46
2022-08-05T00:31:53.657Z,22.50
2022-08-05T00:34:54.549Z,22.48
2022-08-05T00:37:10.805Z,22.39
2022-08-05T00:39:57.429Z,22.33
2022-08-05T00:42:32.978Z,22.19
2022-08-05T00:45:01.537Z,22.23
2022-08-05T00:47:49.184Z,22.16
2022-08-05T00:50:20.869Z,22.14
2022-08-05T00:52:49.057Z,22.08
2022-08-05T00:55:17.009Z,22.11
2022-08-05T00:57:55.308Z,22.10
2022-08-05T01:00:26.031Z,22.11
2022-08-05T01:02:54.076Z,22.13
2022-08-05T01:05:23.579Z,22.09
2022-08-05T01:08:41.885Z,22.08
2022-08-05T01:10:51.549Z,21.94
2022-08-05T01:13:27.385Z,21.91
2022-08-05T01:16:21.078Z,21.89
2022-08-05T01:19:00.775Z,21.76
2022-08-05T01:21:53.801Z,21.79
2022-08-05T01:24:36.718Z,21.76
2022-08-05T01:27:24.340Z,21.69
2022-08-05T01:29:57.169Z,21.67
2022-08-05T01:32:29.105Z,21.69
2022-08-05T01:35:00.488Z,21.64
2022-08-05T01:37:36.605Z,21.65
2022-08-05T01:40:10.176Z,21.61
2022-08-05T01:42:40.868Z,21.59
2022-08-05T01:45:11.777Z,21.56
2022-08-05T01:47:46.383Z,21.55
2022-08-05T01:50:19.390Z,21.55
2022-08-05T01:53:00.940Z,21.49
2022-08-05T01:55:36.232Z,21.44
2022-08-05T01:58:29.640Z,21.37
2022-08-05T02:00:59.229Z,21.32
2022-08-05T02:03:34.089Z,21.27
2022-08-05T02:06:24.252Z,21.19
2022-08-05T02:08:58.639Z,21.01
2022-08-05T02:11:33.644Z,21.05
2022-08-05T02:14:12.467Z,21.13
2022-08-05T02:16:52.822Z,21.11
2022-08-05T02:19:34.153Z,21.03
2022-08-05T02:22:10.845Z,20.98
2022-08-05T02:25:00.138Z,20.83
2022-08-05T02:27:57.932Z,20.57
2022-08-05T02:30:18.222Z,20.25
2022-08-05T02:32:51.332Z,20.16
2022-08-05T02:35:28.138Z,20.18
2022-08-05T02:38:02.956Z,19.97
2022-08-05T02:40:32.516Z,19.89
2022-08-05T02:43:02.391Z,19.83
2022-08-05T02:45:51.510Z,19.71
2022-08-05T02:48:29.347Z,19.66
2022-08-05T02:51:00.352Z,19.65
2022-08-05T02:53:35.985Z,19.71
2022-08-05T02:56:09.287Z,19.60
2022-08-05T02:58:38.277Z,19.67
2022-08-05T03:01:15.784Z,19.57
2022-08-05T03:04:02.113Z,19.59
2022-08-05T03:06:54.660Z,19.56
2022-08-05T03:09:27.095Z,19.64
2022-08-05T03:12:06.781Z,19.62
2022-08-05T03:14:45.617Z,19.67
2022-08-05T03:17:14.137Z,19.63
2022-08-05T03:19:45.780Z,19.64
2022-08-05T03:22:19.007Z,19.67
2022-08-05T03:25:11.551Z,19.69
2022-08-05T03:27:59.092Z,19.74
2022-08-05T03:30:33.776Z,19.73
2022-08-05T03:33:02.881Z,19.75
2022-08-05T03:35:33.682Z,19.55
2022-08-05T03:38:02.527Z,19.32
2022-08-05T03:40:31.972Z,19.17
2022-08-05T03:43:15.763Z,18.95
2022-08-05T03:45:57.140Z,18.99
2022-08-05T03:48:27.146Z,19.11
2022-08-05T03:52:37.264Z,19.03
2022-08-05T03:55:50.441Z,19.08
2022-08-05T03:56:48.073Z,19.02
2022-08-05T03:59:22.614Z,19.12
2022-08-05T04:01:58.993Z,19.16
2022-08-05T04:04:29.084Z,19.18
2022-08-05T04:07:00.187Z,19.18
2022-08-05T04:09:29.146Z,19.20
2022-08-05T04:11:57.464Z,19.21
2022-08-05T04:14:29.962Z,19.25
2022-08-05T04:16:59.749Z,19.27
2022-08-05T04:19:29.388Z,19.19
2022-08-05T04:22:08.930Z,19.24
2022-08-05T04:24:43.833Z,19.28
2022-08-05T04:27:13.087Z,19.20
2022-08-05T04:29:41.534Z,18.97
2022-08-05T04:32:10.923Z,18.85
2022-08-05T04:34:42.847Z,18.78
2022-08-05T04:37:12.773Z,18.77
2022-08-05T04:39:40.861Z,18.86
2022-08-05T04:42:09.744Z,18.80
2022-08-05T04:44:37.560Z,18.84
2022-08-05T04:47:09.608Z,18.85
2022-08-05T04:50:02.792Z,18.87
2022-08-05T04:52:28.855Z,19.07
2022-08-05T04:54:57.034Z,19.13
2022-08-05T04:57:28.505Z,19.10
2022-08-05T04:59:58.523Z,19.24
2022-08-05T05:02:37.045Z,19.19
2022-08-05T05:05:16.617Z,19.33
2022-08-05T05:08:01.613Z,19.41
2022-08-05T05:10:30.319Z,19.50
2022-08-05T05:12:58.468Z,19.38
2022-08-05T05:15:56.211Z,19.34
2022-08-05T05:18:31.601Z,19.21
2022-08-05T05:21:01.685Z,19.16
2022-08-05T05:24:02.126Z,19.13
2022-08-05T05:26:18.910Z,19.14
2022-08-05T05:28:46.921Z,19.13
2022-08-05T05:31:14.957Z,19.20
2022-08-05T05:33:59.632Z,19.25
2022-08-05T05:36:30.096Z,19.42
2022-08-05T05:38:59.910Z,19.48
2022-08-05T05:41:40.066Z,19.53
2022-08-05T05:44:35.693Z,19.51
2022-08-05T05:46:57.874Z,19.57
2022-08-05T05:49:26.115Z,19.54
2022-08-05T05:51:54.128Z,19.59
2022-08-05T05:54:50.558Z,19.69
2022-08-05T05:57:13.683Z,19.74
2022-08-05T05:59:51.417Z,19.64
2022-08-05T06:02:32.502Z,19.70
2022-08-05T06:05:10.534Z,19.64
2022-08-05T06:08:01.182Z,19.67
2022-08-05T06:10:31.669Z,19.68
2022-08-05T06:13:04.985Z,19.81
2022-08-05T06:16:28.660Z,19.90
2022-08-05T06:18:21.864Z,19.92
2022-08-05T06:20:59.338Z,19.95
2022-08-05T06:23:27.502Z,19.92
2022-08-05T06:26:21.349Z,19.99
2022-08-05T06:28:52.053Z,20.02
2022-08-05T06:31:22.278Z,20.13
2022-08-05T06:34:07.406Z,20.05
2022-08-05T06:36:56.871Z,20.08
2022-08-05T06:39:27.733Z,20.24
2022-08-05T06:41:58.851Z,20.22
2022-08-05T06:44:28.092Z,20.24
2022-08-05T06:46:56.500Z,20.18
2022-08-05T06:50:02.084Z,20.28
2022-08-05T06:52:36.412Z,20.29
2022-08-05T06:55:00.643Z,20.35
2022-08-05T06:57:57.692Z,20.23
2022-08-05T07:00:24.557Z,20.25
2022-08-05T07:02:53.637Z,20.21
2022-08-05T07:05:37.000Z,20.15
2022-08-05T07:08:05.996Z,19.97
2022-08-05T07:10:39.203Z,19.95
2022-08-05T07:13:58.457Z,19.91
2022-08-05T07:17:58.332Z,19.92
2022-08-05T07:20:30.978Z,19.93
2022-08-05T07:22:36.034Z,19.91
2022-08-05T07:25:23.802Z,19.70
2022-08-05T07:27:58.374Z,19.72
2022-08-05T07:30:33.601Z,19.59
2022-08-05T07:33:05.203Z,19.56
2022-08-05T07:36:01.938Z,19.68
2022-08-05T07:38:33.008Z,19.63
2022-08-05T07:42:07.099Z,19.57
2022-08-05T07:43:55.128Z,19.82
2022-08-05T07:46:26.680Z,20.01
2022-08-05T07:49:01.835Z,20.17
2022-08-05T07:51:40.882Z,20.29
2022-08-05T07:54:18.753Z,20.54
2022-08-05T07:57:01.842Z,20.48
2022-08-05T07:59:39.840Z,20.61
2022-08-05T08:02:15.724Z,20.86
2022-08-05T08:04:47.293Z,20.93
2022-08-05T08:07:15.547Z,20.54
2022-08-05T08:09:43.786Z,20.39
2022-08-05T08:12:36.825Z,20.42
2022-08-05T08:15:02.584Z,20.40
2022-08-05T08:17:33.216Z,20.51
2022-08-05T08:20:23.058Z,20.37
2022-08-05T08:22:55.621Z,20.42
2022-08-05T08:25:26.723Z,20.23
2022-08-05T08:28:18.129Z,20.19
2022-08-05T08:30:49.962Z,19.85
2022-08-05T08:33:19.875Z,19.83
2022-08-05T08:35:52.402Z,19.81
2022-08-05T08:38:35.362Z,19.70
2022-08-05T08:41:07.453Z,19.69
2022-08-05T08:45:17.760Z,19.80
2022-08-05T08:46:28.285Z,20.05
2022-08-05T08:50:03.772Z,19.79
2022-08-05T08:52:04.359Z,19.70
2022-08-05T08:54:37.964Z,19.88
2022-08-05T08:57:13.329Z,20.02
2022-08-05T08:59:47.339Z,20.05
2022-08-05T09:02:20.639Z,20.29
2022-08-05T09:05:16.899Z,20.36
2022-08-05T09:07:39.889Z,20.43
2022-08-05T09:10:27.827Z,20.66
2022-08-05T09:13:04.525Z,20.29
2022-08-05T09:15:36.931Z,20.29
2022-08-05T09:18:08.831Z,20.16
2022-08-05T09:20:38.536Z,20.10
2022-08-05T09:23:10.482Z,19.95
2022-08-05T09:26:03.325Z,19.89
2022-08-05T09:28:33.765Z,19.90
2022-08-05T09:31:22.925Z,20.60
2022-08-05T09:33:56.235Z,21.52
2022-08-05T09:36:38.425Z,21.47
2022-08-05T09:39:24.481Z,21.39
2022-08-05T09:42:08.419Z,21.34
2022-08-05T09:44:37.948Z,21.25
2022-08-05T09:47:12.556Z,21.26
2022-08-05T09:50:00.450Z,21.51
2022-08-05T09:52:32.879Z,20.66
2022-08-05T09:55:57.696Z,20.36
2022-08-05T09:57:54.657Z,20.10
2022-08-05T10:00:30.629Z,20.23
2022-08-05T10:02:59.114Z,20.31
2022-08-05T10:05:32.780Z,20.13
2022-08-05T10:08:34.947Z,19.89
2022-08-05T10:10:54.235Z,20.19
2022-08-05T10:13:45.755Z,20.09
2022-08-05T10:16:37.711Z,19.80
2022-08-05T10:19:11.795Z,19.68
2022-08-05T10:21:41.167Z,19.43
2022-08-05T10:24:13.674Z,19.43
2022-08-05T10:26:51.298Z,19.20
2022-08-05T10:29:23.696Z,19.04
2022-08-05T10:32:54.505Z,19.46
2022-08-05T10:35:01.174Z,19.21
2022-08-05T10:37:40.271Z,18.95
2022-08-05T10:40:28.250Z,18.85
2022-08-05T10:43:02.327Z,18.88
2022-08-05T10:45:41.707Z,19.12
2022-08-05T10:48:39.572Z,18.97
2022-08-05T10:51:29.120Z,19.09
2022-08-05T10:54:01.067Z,19.21
2022-08-05T10:56:45.198Z,19.17
2022-08-05T11:00:02.840Z,18.99
2022-08-05T11:02:14.546Z,18.75
2022-08-05T11:05:00.255Z,18.87
2022-08-05T11:07:33.065Z,18.77
2022-08-05T11:10:27.689Z,19.10
2022-08-05T11:12:59.417Z,18.90
2022-08-05T11:15:44.047Z,18.90
2022-08-05T11:18:30.160Z,18.88
2022-08-05T11:21:02.560Z,19.06
2022-08-05T11:24:05.378Z,18.82
2022-08-05T11:26:33.522Z,18.68
2022-08-05T11:29:11.358Z,18.86
2022-08-05T11:31:58.023Z,18.97
2022-08-05T11:34:50.766Z,19.19
2022-08-05T11:38:28.065Z,19.56
2022-08-05T11:41:13.913Z,19.61
2022-08-05T11:44:06.620Z,20.15
2022-08-05T11:46:58.620Z,20.29
2022-08-05T11:49:27.641Z,20.35
2022-08-05T11:51:57.687Z,20.45
2022-08-05T11:54:33.271Z,21.02
2022-08-05T11:57:08.407Z,21.25
2022-08-05T11:59:51.197Z,21.78
2022-08-05T12:02:31.793Z,21.93
2022-08-05T12:05:07.203Z,22.32
2022-08-05T12:08:10.384Z,22.35
2022-08-05T12:10:43.442Z,22.22
2022-08-05T12:13:16.319Z,22.60
2022-08-05T12:15:45.028Z,22.87
2022-08-05T12:18:18.841Z,23.26
2022-08-05T12:20:48.474Z,23.75
2022-08-05T12:23:17.262Z,24.33
2022-08-05T12:25:52.480Z,24.12
2022-08-05T12:28:37.889Z,23.94
2022-08-05T12:31:06.563Z,24.18
2022-08-05T12:33:38.706Z,23.55
2022-08-05T12:36:08.343Z,23.31
2022-08-05T12:38:39.576Z,24.40
2022-08-05T12:41:13.423Z,24.09
2022-08-05T12:43:53.560Z,25.38
2022-08-05T12:46:28.831Z,26.42
2022-08-05T12:49:00.645Z,26.28
2022-08-05T12:52:12.956Z,25.85
2022-08-05T12:54:26.657Z,25.33
2022-08-05T12:56:56.424Z,25.38
2022-08-05T12:59:46.900Z,24.55
2022-08-05T13:02:16.758Z,24.28
2022-08-05T13:04:52.619Z,24.98
2022-08-05T13:07:47.760Z,24.36
2022-08-05T13:10:14.481Z,25.24
2022-08-05T13:12:51.163Z,25.27
2022-08-05T13:15:41.148Z,26.43
2022-08-05T13:18:10.513Z,26.03
2022-08-05T13:20:40.695Z,25.60
2022-08-05T13:23:08.611Z,25.65
2022-08-05T13:25:52.603Z,25.37
2022-08-05T13:28:24.532Z,24.76
2022-08-05T13:30:53.376Z,24.95
2022-08-05T13:34:23.605Z,24.92
2022-08-05T13:36:14.573Z,24.66
2022-08-05T13:38:43.235Z,24.37
2022-08-05T13:41:11.978Z,24.48
2022-08-05T13:43:44.988Z,24.63
2022-08-05T13:47:02.035Z,24.24
2022-08-05T13:49:11.705Z,23.88
2022-08-05T13:51:46.462Z,23.73
2022-08-05T13:54:16.423Z,24.38
2022-08-05T13:56:51.610Z,24.86
2022-08-05T13:59:24.308Z,25.35
2022-08-05T14:01:58.414Z,26.34
2022-08-05T14:04:49.844Z,26.27
2022-08-05T14:07:26.098Z,25.22
2022-08-05T14:10:10.503Z,24.75
2022-08-05T14:12:38.604Z,25.12
2022-08-05T14:16:08.774Z,24.80
2022-08-05T14:17:59.430Z,25.08
2022-08-05T14:20:27.747Z,25.16
2022-08-05T14:22:56.924Z,25.36
2022-08-05T14:25:28.441Z,25.52
2022-08-05T14:27:58.544Z,26.21
2022-08-05T14:30:28.122Z,25.38
2022-08-05T14:32:56.951Z,24.68
2022-08-05T14:35:37.464Z,24.79
2022-08-05T14:38:31.935Z,24.06
2022-08-05T14:41:06.432Z,24.02
2022-08-05T14:44:01.511Z,23.97
2022-08-05T14:46:28.698Z,23.88
2022-08-05T14:48:59.485Z,24.22
2022-08-05T14:51:31.852Z,24.15
2022-08-05T14:54:27.500Z,24.15
2022-08-05T14:56:49.448Z,24.12
2022-08-05T14:59:21.307Z,23.85
2022-08-05T15:01:49.964Z,23.77
2022-08-05T15:04:20.451Z,23.51
2022-08-05T15:06:50.102Z,23.45
2022-08-05T15:09:52.194Z,23.59
2022-08-05T15:12:09.506Z,23.62
2022-08-05T15:14:50.274Z,23.79
2022-08-05T15:17:44.823Z,23.46
2022-08-05T15:20:19.038Z,23.11
2022-08-05T15:22:52.171Z,23.18
2022-08-05T15:25:40.898Z,23.15
2022-08-05T15:28:13.361Z,23.08
2022-08-05T15:30:43.349Z,23.27
2022-08-05T15:33:12.114Z,23.34
2022-08-05T15:35:45.286Z,23.30
2022-08-05T15:38:34.146Z,23.26
2022-08-05T15:41:23.890Z,23.14
2022-08-05T15:43:51.059Z,23.06
2022-08-05T15:46:20.461Z,22.81
2022-08-05T15:48:58.888Z,23.14
2022-08-05T15:52:12.440Z,23.24
2022-08-05T15:54:34.542Z,23.36
2022-08-05T15:57:07.292Z,23.09
2022-08-05T15:59:36.214Z,23.13
2022-08-05T16:02:09.407Z,23.13
2022-08-05T16:04:43.060Z,22.97
2022-08-05T16:07:12.113Z,22.80
2022-08-05T16:09:42.083Z,22.73
2022-08-05T16:12:12.810Z,22.70
2022-08-05T16:14:40.648Z,23.00
2022-08-05T16:17:09.480Z,22.76
2022-08-05T16:20:04.313Z,22.90
2022-08-05T16:22:27.725Z,23.19
2022-08-05T16:25:09.602Z,22.95
2022-08-05T16:28:00.512Z,22.89
2022-08-05T16:30:28.802Z,23.14
2022-08-05T16:32:57.023Z,23.35
2022-08-05T16:35:28.389Z,23.17
2022-08-05T16:38:02.277Z,23.09
2022-08-05T16:40:51.943Z,22.77
2022-08-05T16:43:26.301Z,22.89
2022-08-05T16:46:06.137Z,22.80
2022-08-05T16:48:40.338Z,22.99
2022-08-05T16:51:09.287Z,22.71
2022-08-05T16:54:04.738Z,22.88
2022-08-05T16:56:29.090Z,22.86
2022-08-05T16:59:00.802Z,22.64
2022-08-05T17:01:53.134Z,22.61
2022-08-05T17:04:26.624Z,22.41
2022-08-05T17:06:55.590Z,22.35
2022-08-05T17:09:24.848Z,22.70
2022-08-05T17:11:59.336Z,22.79
2022-08-05T17:14:36.756Z,22.51
2022-08-05T17:17:09.328Z,22.71
2022-08-05T17:19:45.704Z,22.81
2022-08-05T17:22:24.561Z,22.52
2022-08-05T17:24:57.541Z,22.59
2022-08-05T17:27:33.940Z,22.32
2022-08-05T17:30:11.786Z,22.41
2022-08-05T17:32:42.052Z,22.34
2022-08-05T17:35:12.095Z,22.25
2022-08-05T17:37:45.355Z,22.30
2022-08-05T17:40:17.196Z,22.46
2022-08-05T17:42:50.487Z,22.37
2022-08-05T17:45:22.915Z,22.32
2022-08-05T17:47:54.973Z,22.26
2022-08-05T17:50:29.005Z,22.25
2022-08-05T17:53:02.405Z,22.35
2022-08-05T17:55:38.021Z,22.19
2022-08-05T17:58:10.895Z,21.97
2022-08-05T18:00:45.385Z,21.86
2022-08-05T18:03:56.498Z,21.73
2022-08-05T18:06:12.236Z,21.98
2022-08-05T18:08:45.848Z,22.03
2022-08-05T18:11:23.702Z,22.02
2022-08-05T18:13:54.530Z,22.07
2022-08-05T18:16:24.741Z,21.95
2022-08-05T18:18:52.597Z,21.81
2022-08-05T18:21:22.738Z,21.71
2022-08-05T18:23:54.304Z,21.54
2022-08-05T18:26:28.947Z,21.61
2022-08-05T18:28:57.964Z,21.50
2022-08-05T18:31:33.016Z,21.40
2022-08-05T18:34:03.691Z,21.30
2022-08-05T18:36:35.376Z,21.34
2022-08-05T18:39:03.800Z,21.21
2022-08-05T18:41:58.149Z,21.26
2022-08-05T18:44:35.151Z,21.27
2022-08-05T18:47:16.626Z,21.17
2022-08-05T18:50:02.097Z,21.14
2022-08-05T18:52:35.942Z,21.19
2022-08-05T18:55:10.367Z,21.15
2022-08-05T18:57:43.660Z,21.12
2022-08-05T19:00:28.477Z,21.11
2022-08-05T19:03:04.125Z,20.94
2022-08-05T19:06:12.384Z,20.83
2022-08-05T19:08:22.422Z,20.82
2022-08-05T19:11:02.874Z,20.72
2022-08-05T19:13:35.571Z,20.74
2022-08-05T19:16:04.801Z,20.64
2022-08-05T19:18:56.638Z,20.55
2022-08-05T19:21:27.609Z,20.44
2022-08-05T19:24:07.431Z,20.38
2022-08-05T19:26:54.239Z,20.33
2022-08-05T19:29:26.628Z,20.29
2022-08-05T19:32:03.591Z,20.29
2022-08-05T19:34:34.594Z,20.23
2022-08-05T19:37:03.117Z,20.16
2022-08-05T19:39:32.003Z,20.12
2022-08-05T19:42:15.335Z,20.05
2022-08-05T19:44:44.959Z,19.99
2022-08-05T19:47:16.116Z,19.88
2022-08-05T19:49:47.960Z,19.79
2022-08-05T19:52:31.053Z,19.72
2022-08-05T19:55:07.220Z,19.49
2022-08-05T19:58:06.817Z,19.44
2022-08-05T20:00:37.492Z,19.33
2022-08-05T20:03:09.133Z,19.37
2022-08-05T20:05:43.182Z,19.37
2022-08-05T20:08:11.514Z,19.32
2022-08-05T20:10:39.533Z,19.29
2022-08-05T20:13:12.132Z,19.18
2022-08-05T20:15:51.887Z,19.10
2022-08-05T20:18:33.829Z,19.06
2022-08-05T20:21:06.904Z,18.96
2022-08-05T20:23:40.502Z,18.92
2022-08-05T20:26:19.266Z,18.92
2022-08-05T20:28:48.573Z,18.84
2022-08-05T20:31:17.072Z,18.64
2022-08-05T20:33:45.491Z,18.55
2022-08-05T20:36:16.275Z,18.43
2022-08-05T20:38:53.553Z,18.39
2022-08-05T20:41:24.119Z,18.26
2022-08-05T20:43:58.846Z,18.26
2022-08-05T20:46:30.753Z,18.31
2022-08-05T20:48:59.619Z,18.32
2022-08-05T20:51:28.885Z,18.31
2022-08-05T20:53:57.265Z,18.26
2022-08-05T20:56:41.924Z,18.29
2022-08-05T20:59:14.052Z,18.26
2022-08-05T21:01:47.567Z,18.20
2022-08-05T21:04:18.571Z,18.13
2022-08-05T21:06:47.864Z,18.00
2022-08-05T21:09:16.054Z,17.91
2022-08-05T21:12:10.353Z,17.79
2022-08-05T21:14:35.011Z,17.67
2022-08-05T21:17:05.253Z,17.64
2022-08-05T21:19:47.311Z,17.49
2022-08-05T21:22:21.641Z,17.42
2022-08-05T21:24:51.564Z,17.38
2022-08-05T21:27:25.327Z,17.42
2022-08-05T21:29:55.913Z,17.36
2022-08-05T21:32:26.676Z,17.35
2022-08-05T21:35:16.806Z,17.33
2022-08-05T21:37:47.468Z,17.27
2022-08-05T21:40:21.709Z,17.15
2022-08-05T21:42:51.615Z,17.14
2022-08-05T21:45:24.989Z,17.13
2022-08-05T21:48:08.490Z,17.16
2022-08-05T21:50:36.712Z,17.14
2022-08-05T21:53:17.394Z,17.18
2022-08-05T21:56:06.334Z,17.20
2022-08-05T21:58:33.891Z,17.13
2022-08-05T22:01:01.980Z,17.10
2022-08-05T22:03:52.216Z,17.12
2022-08-05T22:06:23.034Z,17.07
2022-08-05T22:09:13.762Z,16.98
2022-08-05T22:11:46.718Z,16.99
2022-08-05T22:14:34.479Z,17.00
2022-08-05T22:17:06.764Z,16.89
2022-08-05T22:20:00.697Z,16.88
2022-08-05T22:22:27.150Z,16.87
2022-08-05T22:25:21.137Z,16.82
2022-08-05T22:28:08.677Z,16.83
2022-08-05T22:30:43.961Z,16.80
2022-08-05T22:33:55.867Z,16.69
2022-08-05T22:36:09.665Z,16.66
2022-08-05T22:38:38.280Z,16.67
2022-08-05T22:41:11.965Z,16.63
2022-08-05T22:43:42.985Z,16.55
2022-08-05T22:46:13.744Z,16.45
2022-08-05T22:48:51.676Z,16.37
2022-08-05T22:51:22.715Z,16.32
2022-08-05T22:53:51.018Z,16.30
2022-08-05T22:56:29.706Z,16.26
2022-08-05T22:59:00.051Z,16.20
2022-08-05T23:02:03.963Z,16.09
2022-08-05T23:04:19.585Z,16.06
2022-08-05T23:06:47.768Z,16.04
2022-08-05T23:09:53.501Z,16.08
2022-08-05T23:12:05.975Z,15.99
2022-08-05T23:14:34.029Z,15.96
2022-08-05T23:17:24.245Z,15.96
2022-08-05T23:20:02.424Z,15.95
2022-08-05T23:22:31.106Z,15.88
2022-08-05T23:24:59.258Z,15.83
2022-08-05T23:27:31.448Z,15.79
2022-08-05T23:30:11.503Z,15.82
2022-08-05T23:32:45.166Z,15.85
2022-08-05T23:35:13.419Z,15.76
2022-08-05T23:37:41.437Z,15.76
2022-08-05T23:40:12.008Z,15.76
2022-08-05T23:42:41.256Z,15.75
2022-08-05T23:45:15.906Z,15.76
2022-08-05T23:47:48.281Z,15.73
2022-08-05T23:50:17.021Z,15.68
2022-08-05T23:52:50.000Z,15.67
2022-08-05T23:55:19.845Z,15.65
2022-08-05T23:57:52.734Z,15.62
